sensor_id;sensor_type;location;lat;lon;timestamp;P1;durP1;ratioP1;P2;durP2;ratioP2
12814;SDS011;6472;52.328;13.070;2023-03-01T00:01:19;5.07;;;2.53;;
12814;SDS011;6472;52.328;13.070;2023-03-01T00:03:50;2.17;;;1.97;;
12814;SDS011;6472;52.328;13.070;2023-03-01T00:06:19;4.40;;;3.40;;
12814;SDS011;6472;52.328;13.070;2023-03-01T00:08:48;4.43;;;2.90;;
12814;SDS011;6472;52.328;13.070;2023-03-01T00:11:17;8.97;;;4.37;;
12814;SDS011;6472;52.328;13.070;2023-03-01T00:13:47;6.20;;;3.30;;
12814;SDS011;6472;52.328;13.070;2023-03-01T00:16:18;6.17;;;3.33;;
12814;SDS011;6472;52.328;13.070;2023-03-01T00:18:49;5.60;;;3.43;;
12814;SDS011;6472;52.328;13.070;2023-03-01T00:21:18;6.63;;;2.93;;
12814;SDS011;6472;52.328;13.070;2023-03-01T00:23:48;4.43;;;2.63;;
12814;SDS011;6472;52.328;13.070;2023-03-01T00:26:17;10.77;;;3.37;;
12814;SDS011;6472;52.328;13.070;2023-03-01T00:28:46;5.30;;;3.50;;
12814;SDS011;6472;52.328;13.070;2023-03-01T00:31:15;5.37;;;2.17;;
12814;SDS011;6472;52.328;13.070;2023-03-01T00:33:45;5.93;;;2.53;;
12814;SDS011;6472;52.328;13.070;2023-03-01T00:36:15;4.87;;;2.33;;
12814;SDS011;6472;52.328;13.070;2023-03-01T00:38:44;6.03;;;3.13;;
12814;SDS011;6472;52.328;13.070;2023-03-01T00:41:14;5.27;;;2.23;;
12814;SDS011;6472;52.328;13.070;2023-03-01T00:43:43;2.30;;;1.43;;
12814;SDS011;6472;52.328;13.070;2023-03-01T00:46:13;4.20;;;2.33;;
12814;SDS011;6472;52.328;13.070;2023-03-01T00:48:42;1.43;;;1.33;;
12814;SDS011;6472;52.328;13.070;2023-03-01T00:51:11;2.53;;;2.10;;
12814;SDS011;6472;52.328;13.070;2023-03-01T00:53:42;3.53;;;2.50;;
12814;SDS011;6472;52.328;13.070;2023-03-01T00:56:12;4.03;;;2.47;;
12814;SDS011;6472;52.328;13.070;2023-03-01T00:58:41;1.80;;;1.70;;
12814;SDS011;6472;52.328;13.070;2023-03-01T01:01:10;2.57;;;2.10;;
12814;SDS011;6472;52.328;13.070;2023-03-01T01:03:45;3.67;;;2.57;;
12814;SDS011;6472;52.328;13.070;2023-03-01T01:06:15;2.63;;;1.60;;
12814;SDS011;6472;52.328;13.070;2023-03-01T01:08:46;2.47;;;2.13;;
12814;SDS011;6472;52.328;13.070;2023-03-01T01:11:15;3.13;;;1.63;;
12814;SDS011;6472;52.328;13.070;2023-03-01T01:13:44;2.30;;;1.70;;
12814;SDS011;6472;52.328;13.070;2023-03-01T01:16:13;7.33;;;2.60;;
12814;SDS011;6472;52.328;13.070;2023-03-01T01:18:42;4.17;;;2.63;;
12814;SDS011;6472;52.328;13.070;2023-03-01T01:21:11;1.30;;;1.20;;
12814;SDS011;6472;52.328;13.070;2023-03-01T01:23:40;7.07;;;2.63;;
12814;SDS011;6472;52.328;13.070;2023-03-01T01:26:12;2.93;;;2.13;;
12814;SDS011;6472;52.328;13.070;2023-03-01T01:28:45;5.50;;;2.37;;
12814;SDS011;6472;52.328;13.070;2023-03-01T01:31:14;4.17;;;2.17;;
12814;SDS011;6472;52.328;13.070;2023-03-01T01:33:43;2.10;;;1.93;;
12814;SDS011;6472;52.328;13.070;2023-03-01T01:36:11;3.80;;;1.73;;
12814;SDS011;6472;52.328;13.070;2023-03-01T01:38:50;2.50;;;2.30;;
12814;SDS011;6472;52.328;13.070;2023-03-01T01:41:20;1.70;;;1.60;;
12814;SDS011;6472;52.328;13.070;2023-03-01T01:44:21;6.50;;;2.47;;
12814;SDS011;6472;52.328;13.070;2023-03-01T01:46:52;1.67;;;1.57;;
12814;SDS011;6472;52.328;13.070;2023-03-01T01:49:24;3.80;;;2.50;;
12814;SDS011;6472;52.328;13.070;2023-03-01T01:51:57;2.93;;;1.97;;
12814;SDS011;6472;52.328;13.070;2023-03-01T01:54:30;1.57;;;1.30;;
12814;SDS011;6472;52.328;13.070;2023-03-01T01:57:06;1.00;;;0.90;;
12814;SDS011;6472;52.328;13.070;2023-03-01T01:59:38;2.97;;;2.30;;
12814;SDS011;6472;52.328;13.070;2023-03-01T02:02:08;2.60;;;2.20;;
12814;SDS011;6472;52.328;13.070;2023-03-01T02:04:36;2.43;;;1.63;;
12814;SDS011;6472;52.328;13.070;2023-03-01T02:07:05;4.47;;;2.07;;
12814;SDS011;6472;52.328;13.070;2023-03-01T02:09:39;3.47;;;2.00;;
12814;SDS011;6472;52.328;13.070;2023-03-01T02:12:09;6.53;;;1.60;;
12814;SDS011;6472;52.328;13.070;2023-03-01T02:14:38;3.53;;;2.17;;
12814;SDS011;6472;52.328;13.070;2023-03-01T02:17:06;3.60;;;1.80;;
12814;SDS011;6472;52.328;13.070;2023-03-01T02:19:39;4.70;;;2.47;;
12814;SDS011;6472;52.328;13.070;2023-03-01T02:22:18;2.03;;;1.63;;
12814;SDS011;6472;52.328;13.070;2023-03-01T02:24:54;2.77;;;1.37;;
12814;SDS011;6472;52.328;13.070;2023-03-01T02:27:34;5.87;;;1.63;;
12814;SDS011;6472;52.328;13.070;2023-03-01T02:30:10;4.47;;;2.37;;
12814;SDS011;6472;52.328;13.070;2023-03-01T02:32:39;1.87;;;1.77;;
12814;SDS011;6472;52.328;13.070;2023-03-01T02:35:08;6.53;;;2.83;;
12814;SDS011;6472;52.328;13.070;2023-03-01T02:37:39;4.37;;;2.30;;
12814;SDS011;6472;52.328;13.070;2023-03-01T02:40:09;3.43;;;2.60;;
12814;SDS011;6472;52.328;13.070;2023-03-01T02:42:45;2.47;;;2.30;;
12814;SDS011;6472;52.328;13.070;2023-03-01T02:45:18;2.83;;;1.63;;
12814;SDS011;6472;52.328;13.070;2023-03-01T02:47:46;1.93;;;1.83;;
12814;SDS011;6472;52.328;13.070;2023-03-01T02:50:19;3.00;;;1.73;;
12814;SDS011;6472;52.328;13.070;2023-03-01T02:53:02;2.43;;;1.77;;
12814;SDS011;6472;52.328;13.070;2023-03-01T02:55:35;1.73;;;1.50;;
12814;SDS011;6472;52.328;13.070;2023-03-01T02:58:04;3.13;;;1.77;;
12814;SDS011;6472;52.328;13.070;2023-03-01T03:00:35;2.23;;;2.00;;
12814;SDS011;6472;52.328;13.070;2023-03-01T03:03:06;1.77;;;1.67;;
12814;SDS011;6472;52.328;13.070;2023-03-01T03:05:35;1.80;;;1.70;;
12814;SDS011;6472;52.328;13.070;2023-03-01T03:08:03;2.67;;;2.47;;
12814;SDS011;6472;52.328;13.070;2023-03-01T03:10:34;1.87;;;1.70;;
12814;SDS011;6472;52.328;13.070;2023-03-01T03:13:04;2.27;;;2.07;;
12814;SDS011;6472;52.328;13.070;2023-03-01T03:15:35;2.03;;;1.93;;
12814;SDS011;6472;52.328;13.070;2023-03-01T03:18:06;3.33;;;2.33;;
12814;SDS011;6472;52.328;13.070;2023-03-01T03:20:36;2.23;;;2.03;;
12814;SDS011;6472;52.328;13.070;2023-03-01T03:23:06;1.20;;;1.17;;
12814;SDS011;6472;52.328;13.070;2023-03-01T03:25:35;3.90;;;2.17;;
12814;SDS011;6472;52.328;13.070;2023-03-01T03:28:04;3.07;;;2.33;;
12814;SDS011;6472;52.328;13.070;2023-03-01T03:30:38;1.47;;;1.37;;
12814;SDS011;6472;52.328;13.070;2023-03-01T03:33:07;2.17;;;1.97;;
12814;SDS011;6472;52.328;13.070;2023-03-01T03:35:40;3.07;;;2.60;;
12814;SDS011;6472;52.328;13.070;2023-03-01T03:38:10;2.30;;;1.90;;
12814;SDS011;6472;52.328;13.070;2023-03-01T03:40:44;3.17;;;1.50;;
12814;SDS011;6472;52.328;13.070;2023-03-01T03:43:14;7.00;;;3.00;;
12814;SDS011;6472;52.328;13.070;2023-03-01T03:45:45;2.03;;;1.93;;
12814;SDS011;6472;52.328;13.070;2023-03-01T03:48:14;2.93;;;1.93;;
12814;SDS011;6472;52.328;13.070;2023-03-01T03:50:47;1.83;;;1.73;;
12814;SDS011;6472;52.328;13.070;2023-03-01T03:53:16;5.07;;;2.90;;
12814;SDS011;6472;52.328;13.070;2023-03-01T03:55:44;5.10;;;2.90;;
12814;SDS011;6472;52.328;13.070;2023-03-01T03:58:16;3.77;;;1.90;;
12814;SDS011;6472;52.328;13.070;2023-03-01T04:00:48;1.50;;;1.40;;
12814;SDS011;6472;52.328;13.070;2023-03-01T04:03:18;3.67;;;2.83;;
12814;SDS011;6472;52.328;13.070;2023-03-01T04:05:48;3.13;;;2.70;;
12814;SDS011;6472;52.328;13.070;2023-03-01T04:08:17;6.90;;;2.43;;
12814;SDS011;6472;52.328;13.070;2023-03-01T04:10:47;3.20;;;2.10;;
12814;SDS011;6472;52.328;13.070;2023-03-01T04:13:17;1.90;;;1.80;;
12814;SDS011;6472;52.328;13.070;2023-03-01T04:15:49;3.63;;;2.00;;
12814;SDS011;6472;52.328;13.070;2023-03-01T04:18:18;3.27;;;2.10;;
12814;SDS011;6472;52.328;13.070;2023-03-01T04:20:48;4.13;;;2.83;;
12814;SDS011;6472;52.328;13.070;2023-03-01T04:23:18;4.43;;;2.07;;
12814;SDS011;6472;52.328;13.070;2023-03-01T04:25:48;1.93;;;1.83;;
12814;SDS011;6472;52.328;13.070;2023-03-01T04:28:21;8.60;;;2.77;;
12814;SDS011;6472;52.328;13.070;2023-03-01T04:30:52;4.20;;;2.00;;
12814;SDS011;6472;52.328;13.070;2023-03-01T04:33:26;2.30;;;2.10;;
12814;SDS011;6472;52.328;13.070;2023-03-01T04:35:54;3.57;;;2.53;;
12814;SDS011;6472;52.328;13.070;2023-03-01T04:38:24;4.13;;;2.20;;
12814;SDS011;6472;52.328;13.070;2023-03-01T04:40:52;2.47;;;2.27;;
12814;SDS011;6472;52.328;13.070;2023-03-01T04:43:20;5.40;;;2.50;;
12814;SDS011;6472;52.328;13.070;2023-03-01T04:45:48;3.43;;;2.20;;
12814;SDS011;6472;52.328;13.070;2023-03-01T04:48:18;2.27;;;1.50;;
12814;SDS011;6472;52.328;13.070;2023-03-01T04:50:46;6.93;;;2.00;;
12814;SDS011;6472;52.328;13.070;2023-03-01T04:53:14;2.33;;;2.03;;
12814;SDS011;6472;52.328;13.070;2023-03-01T04:55:44;4.53;;;3.47;;
12814;SDS011;6472;52.328;13.070;2023-03-01T04:58:13;1.90;;;1.77;;
12814;SDS011;6472;52.328;13.070;2023-03-01T05:00:41;1.53;;;1.47;;
12814;SDS011;6472;52.328;13.070;2023-03-01T05:03:09;2.97;;;2.00;;
12814;SDS011;6472;52.328;13.070;2023-03-01T05:05:39;1.90;;;1.73;;
12814;SDS011;6472;52.328;13.070;2023-03-01T05:08:08;3.77;;;3.40;;
12814;SDS011;6472;52.328;13.070;2023-03-01T05:10:48;2.43;;;2.30;;
12814;SDS011;6472;52.328;13.070;2023-03-01T05:13:23;1.90;;;1.50;;
12814;SDS011;6472;52.328;13.070;2023-03-01T05:15:56;3.80;;;2.97;;
12814;SDS011;6472;52.328;13.070;2023-03-01T05:18:29;3.30;;;2.30;;
12814;SDS011;6472;52.328;13.070;2023-03-01T05:21:06;5.03;;;2.60;;
12814;SDS011;6472;52.328;13.070;2023-03-01T05:23:42;6.47;;;2.60;;
12814;SDS011;6472;52.328;13.070;2023-03-01T05:26:11;3.07;;;2.20;;
12814;SDS011;6472;52.328;13.070;2023-03-01T05:29:00;0.90;;;0.90;;
12814;SDS011;6472;52.328;13.070;2023-03-01T05:31:28;2.57;;;2.37;;
12814;SDS011;6472;52.328;13.070;2023-03-01T05:33:59;2.57;;;2.33;;
12814;SDS011;6472;52.328;13.070;2023-03-01T05:36:34;2.47;;;2.27;;
12814;SDS011;6472;52.328;13.070;2023-03-01T05:39:07;2.37;;;2.03;;
12814;SDS011;6472;52.328;13.070;2023-03-01T05:41:36;4.23;;;2.30;;
12814;SDS011;6472;52.328;13.070;2023-03-01T05:44:08;1.73;;;1.63;;
12814;SDS011;6472;52.328;13.070;2023-03-01T05:46:42;5.23;;;2.33;;
12814;SDS011;6472;52.328;13.070;2023-03-01T05:49:12;6.40;;;2.13;;
12814;SDS011;6472;52.328;13.070;2023-03-01T05:51:42;4.97;;;2.97;;
12814;SDS011;6472;52.328;13.070;2023-03-01T05:54:14;3.33;;;2.80;;
12814;SDS011;6472;52.328;13.070;2023-03-01T05:56:43;1.90;;;1.80;;
12814;SDS011;6472;52.328;13.070;2023-03-01T05:59:12;5.37;;;2.67;;
12814;SDS011;6472;52.328;13.070;2023-03-01T06:31:25;5.57;;;3.20;;
12814;SDS011;6472;52.328;13.070;2023-03-01T06:33:53;7.70;;;3.47;;
12814;SDS011;6472;52.328;13.070;2023-03-01T06:36:22;4.73;;;3.70;;
12814;SDS011;6472;52.328;13.070;2023-03-01T06:38:51;9.90;;;4.73;;
12814;SDS011;6472;52.328;13.070;2023-03-01T06:41:22;6.47;;;4.53;;
12814;SDS011;6472;52.328;13.070;2023-03-01T06:43:50;6.17;;;3.90;;
12814;SDS011;6472;52.328;13.070;2023-03-01T06:46:21;7.53;;;3.90;;
12814;SDS011;6472;52.328;13.070;2023-03-01T06:48:50;3.90;;;3.60;;
12814;SDS011;6472;52.328;13.070;2023-03-01T06:51:18;4.40;;;3.47;;
12814;SDS011;6472;52.328;13.070;2023-03-01T06:53:46;3.77;;;3.40;;
12814;SDS011;6472;52.328;13.070;2023-03-01T06:56:14;6.40;;;3.33;;
12814;SDS011;6472;52.328;13.070;2023-03-01T06:58:42;4.30;;;3.90;;
12814;SDS011;6472;52.328;13.070;2023-03-01T07:01:10;3.83;;;3.43;;
12814;SDS011;6472;52.328;13.070;2023-03-01T07:03:38;4.40;;;3.37;;
12814;SDS011;6472;52.328;13.070;2023-03-01T07:06:08;7.13;;;4.43;;
12814;SDS011;6472;52.328;13.070;2023-03-01T07:08:36;4.63;;;3.73;;
12814;SDS011;6472;52.328;13.070;2023-03-01T07:11:04;9.23;;;5.83;;
12814;SDS011;6472;52.328;13.070;2023-03-01T07:13:32;5.03;;;3.50;;
12814;SDS011;6472;52.328;13.070;2023-03-01T07:16:00;5.37;;;4.87;;
12814;SDS011;6472;52.328;13.070;2023-03-01T07:18:28;11.77;;;5.17;;
12814;SDS011;6472;52.328;13.070;2023-03-01T07:20:56;6.80;;;3.80;;
12814;SDS011;6472;52.328;13.070;2023-03-01T07:23:25;6.33;;;4.10;;
12814;SDS011;6472;52.328;13.070;2023-03-01T07:25:53;5.60;;;4.47;;
12814;SDS011;6472;52.328;13.070;2023-03-01T07:28:22;10.00;;;4.53;;
12814;SDS011;6472;52.328;13.070;2023-03-01T07:30:50;8.47;;;4.87;;
12814;SDS011;6472;52.328;13.070;2023-03-01T07:33:18;9.30;;;5.50;;
12814;SDS011;6472;52.328;13.070;2023-03-01T07:35:47;8.20;;;4.70;;
12814;SDS011;6472;52.328;13.070;2023-03-01T07:38:15;7.97;;;4.80;;
12814;SDS011;6472;52.328;13.070;2023-03-01T07:40:44;10.13;;;5.23;;
12814;SDS011;6472;52.328;13.070;2023-03-01T07:43:12;8.53;;;6.00;;
12814;SDS011;6472;52.328;13.070;2023-03-01T07:45:40;9.13;;;6.13;;
12814;SDS011;6472;52.328;13.070;2023-03-01T07:48:08;5.27;;;4.77;;
12814;SDS011;6472;52.328;13.070;2023-03-01T07:50:36;6.50;;;5.50;;
12814;SDS011;6472;52.328;13.070;2023-03-01T07:53:04;10.13;;;6.17;;
12814;SDS011;6472;52.328;13.070;2023-03-01T07:55:32;9.97;;;7.27;;
12814;SDS011;6472;52.328;13.070;2023-03-01T07:58:01;10.47;;;5.43;;
12814;SDS011;6472;52.328;13.070;2023-03-01T08:00:29;10.20;;;6.33;;
12814;SDS011;6472;52.328;13.070;2023-03-01T08:02:58;7.63;;;5.00;;
12814;SDS011;6472;52.328;13.070;2023-03-01T08:05:26;8.93;;;5.43;;
12814;SDS011;6472;52.328;13.070;2023-03-01T08:07:55;9.90;;;6.40;;
12814;SDS011;6472;52.328;13.070;2023-03-01T08:10:23;8.47;;;5.73;;
12814;SDS011;6472;52.328;13.070;2023-03-01T08:12:51;13.97;;;6.73;;
12814;SDS011;6472;52.328;13.070;2023-03-01T08:15:21;14.23;;;7.70;;
12814;SDS011;6472;52.328;13.070;2023-03-01T08:17:49;11.33;;;6.13;;
12814;SDS011;6472;52.328;13.070;2023-03-01T08:20:17;14.13;;;8.40;;
12814;SDS011;6472;52.328;13.070;2023-03-01T08:22:45;12.23;;;7.77;;
12814;SDS011;6472;52.328;13.070;2023-03-01T08:25:13;13.27;;;8.37;;
12814;SDS011;6472;52.328;13.070;2023-03-01T08:27:41;9.77;;;6.73;;
12814;SDS011;6472;52.328;13.070;2023-03-01T08:30:10;11.10;;;7.77;;
12814;SDS011;6472;52.328;13.070;2023-03-01T08:32:40;14.23;;;7.47;;
12814;SDS011;6472;52.328;13.070;2023-03-01T08:35:08;9.70;;;6.57;;
12814;SDS011;6472;52.328;13.070;2023-03-01T08:37:36;8.27;;;6.43;;
12814;SDS011;6472;52.328;13.070;2023-03-01T08:40:04;10.30;;;7.03;;
12814;SDS011;6472;52.328;13.070;2023-03-01T08:42:36;9.73;;;6.00;;
12814;SDS011;6472;52.328;13.070;2023-03-01T08:45:05;8.77;;;6.40;;
12814;SDS011;6472;52.328;13.070;2023-03-01T08:47:33;7.80;;;5.13;;
12814;SDS011;6472;52.328;13.070;2023-03-01T08:50:03;9.37;;;5.47;;
12814;SDS011;6472;52.328;13.070;2023-03-01T08:52:31;6.30;;;4.77;;
12814;SDS011;6472;52.328;13.070;2023-03-01T08:55:00;4.97;;;3.93;;
12814;SDS011;6472;52.328;13.070;2023-03-01T08:57:28;6.23;;;4.07;;
12814;SDS011;6472;52.328;13.070;2023-03-01T08:59:57;4.40;;;3.87;;
12814;SDS011;6472;52.328;13.070;2023-03-01T09:02:25;7.17;;;5.00;;
12814;SDS011;6472;52.328;13.070;2023-03-01T09:04:53;5.77;;;4.03;;
12814;SDS011;6472;52.328;13.070;2023-03-01T09:07:22;6.47;;;4.40;;
12814;SDS011;6472;52.328;13.070;2023-03-01T09:09:54;6.23;;;4.67;;
12814;SDS011;6472;52.328;13.070;2023-03-01T09:12:22;5.27;;;4.60;;
12814;SDS011;6472;52.328;13.070;2023-03-01T09:14:51;4.57;;;3.63;;
12814;SDS011;6472;52.328;13.070;2023-03-01T09:17:19;6.23;;;3.57;;
12814;SDS011;6472;52.328;13.070;2023-03-01T09:19:47;4.80;;;3.23;;
12814;SDS011;6472;52.328;13.070;2023-03-01T09:22:16;4.37;;;3.20;;
12814;SDS011;6472;52.328;13.070;2023-03-01T09:24:45;7.73;;;3.20;;
12814;SDS011;6472;52.328;13.070;2023-03-01T09:27:13;3.50;;;2.80;;
12814;SDS011;6472;52.328;13.070;2023-03-01T09:29:44;5.03;;;2.67;;
12814;SDS011;6472;52.328;13.070;2023-03-01T09:32:12;5.17;;;3.00;;
12814;SDS011;6472;52.328;13.070;2023-03-01T09:34:41;3.27;;;2.57;;
12814;SDS011;6472;52.328;13.070;2023-03-01T09:37:27;4.20;;;2.93;;
12814;SDS011;6472;52.328;13.070;2023-03-01T09:39:56;3.77;;;2.43;;
12814;SDS011;6472;52.328;13.070;2023-03-01T09:42:24;9.50;;;2.23;;
12814;SDS011;6472;52.328;13.070;2023-03-01T09:44:54;3.73;;;2.47;;
12814;SDS011;6472;52.328;13.070;2023-03-01T09:47:27;6.27;;;2.60;;
12814;SDS011;6472;52.328;13.070;2023-03-01T09:49:58;3.83;;;2.40;;
12814;SDS011;6472;52.328;13.070;2023-03-01T09:52:33;4.10;;;2.23;;
12814;SDS011;6472;52.328;13.070;2023-03-01T09:55:10;3.83;;;1.93;;
12814;SDS011;6472;52.328;13.070;2023-03-01T09:57:41;3.33;;;2.50;;
12814;SDS011;6472;52.328;13.070;2023-03-01T10:00:26;4.03;;;2.50;;
12814;SDS011;6472;52.328;13.070;2023-03-01T10:03:03;3.70;;;2.57;;
12814;SDS011;6472;52.328;13.070;2023-03-01T10:05:41;2.50;;;2.13;;
12814;SDS011;6472;52.328;13.070;2023-03-01T10:08:29;4.67;;;2.50;;
12814;SDS011;6472;52.328;13.070;2023-03-01T10:11:04;2.60;;;2.40;;
12814;SDS011;6472;52.328;13.070;2023-03-01T10:13:46;3.90;;;2.43;;
12814;SDS011;6472;52.328;13.070;2023-03-01T10:16:21;4.33;;;2.90;;
12814;SDS011;6472;52.328;13.070;2023-03-01T10:18:54;5.43;;;3.30;;
12814;SDS011;6472;52.328;13.070;2023-03-01T10:21:26;2.27;;;1.90;;
12814;SDS011;6472;52.328;13.070;2023-03-01T10:23:59;4.10;;;2.20;;
12814;SDS011;6472;52.328;13.070;2023-03-01T10:26:44;5.17;;;2.50;;
12814;SDS011;6472;52.328;13.070;2023-03-01T10:29:19;3.40;;;1.70;;
12814;SDS011;6472;52.328;13.070;2023-03-01T10:31:52;3.83;;;2.30;;
12814;SDS011;6472;52.328;13.070;2023-03-01T10:34:21;5.10;;;2.40;;
12814;SDS011;6472;52.328;13.070;2023-03-01T10:36:56;3.50;;;2.40;;
12814;SDS011;6472;52.328;13.070;2023-03-01T10:39:27;3.87;;;2.00;;
12814;SDS011;6472;52.328;13.070;2023-03-01T10:42:00;4.93;;;2.47;;
12814;SDS011;6472;52.328;13.070;2023-03-01T10:44:37;3.07;;;2.63;;
12814;SDS011;6472;52.328;13.070;2023-03-01T10:47:15;4.90;;;2.20;;
12814;SDS011;6472;52.328;13.070;2023-03-01T10:49:58;4.07;;;1.93;;
12814;SDS011;6472;52.328;13.070;2023-03-01T10:52:30;3.90;;;2.20;;
12814;SDS011;6472;52.328;13.070;2023-03-01T10:55:02;2.93;;;2.10;;
12814;SDS011;6472;52.328;13.070;2023-03-01T10:57:48;3.70;;;2.07;;
12814;SDS011;6472;52.328;13.070;2023-03-01T11:00:18;3.53;;;2.63;;
12814;SDS011;6472;52.328;13.070;2023-03-01T11:02:49;5.53;;;2.40;;
12814;SDS011;6472;52.328;13.070;2023-03-01T11:05:28;3.37;;;2.33;;
12814;SDS011;6472;52.328;13.070;2023-03-01T11:08:00;4.33;;;2.60;;
12814;SDS011;6472;52.328;13.070;2023-03-01T11:10:30;3.80;;;2.13;;
12814;SDS011;6472;52.328;13.070;2023-03-01T11:13:08;3.23;;;2.53;;
12814;SDS011;6472;52.328;13.070;2023-03-01T11:15:42;2.70;;;2.50;;
12814;SDS011;6472;52.328;13.070;2023-03-01T11:18:25;4.97;;;2.73;;
12814;SDS011;6472;52.328;13.070;2023-03-01T11:21:12;3.67;;;3.03;;
12814;SDS011;6472;52.328;13.070;2023-03-01T11:23:42;5.73;;;2.60;;
12814;SDS011;6472;52.328;13.070;2023-03-01T11:26:13;2.53;;;2.30;;
12814;SDS011;6472;52.328;13.070;2023-03-01T11:28:49;5.63;;;2.63;;
12814;SDS011;6472;52.328;13.070;2023-03-01T11:31:21;2.30;;;2.03;;
12814;SDS011;6472;52.328;13.070;2023-03-01T11:33:53;3.20;;;2.30;;
12814;SDS011;6472;52.328;13.070;2023-03-01T11:36:28;2.40;;;2.20;;
12814;SDS011;6472;52.328;13.070;2023-03-01T11:39:03;3.87;;;2.67;;
12814;SDS011;6472;52.328;13.070;2023-03-01T11:41:44;4.97;;;2.30;;
12814;SDS011;6472;52.328;13.070;2023-03-01T11:44:20;5.83;;;2.60;;
12814;SDS011;6472;52.328;13.070;2023-03-01T11:47:01;3.10;;;2.23;;
12814;SDS011;6472;52.328;13.070;2023-03-01T11:49:59;2.53;;;2.07;;
12814;SDS011;6472;52.328;13.070;2023-03-01T11:52:42;3.20;;;2.13;;
12814;SDS011;6472;52.328;13.070;2023-03-01T11:55:30;2.00;;;1.80;;
12814;SDS011;6472;52.328;13.070;2023-03-01T11:58:12;3.53;;;2.23;;
12814;SDS011;6472;52.328;13.070;2023-03-01T12:00:57;2.07;;;1.87;;
12814;SDS011;6472;52.328;13.070;2023-03-01T12:03:33;4.37;;;2.23;;
12814;SDS011;6472;52.328;13.070;2023-03-01T12:06:24;3.03;;;1.90;;
12814;SDS011;6472;52.328;13.070;2023-03-01T12:09:07;2.27;;;2.03;;
12814;SDS011;6472;52.328;13.070;2023-03-01T12:11:52;3.60;;;1.67;;
12814;SDS011;6472;52.328;13.070;2023-03-01T12:17:39;2.83;;;1.97;;
12814;SDS011;6472;52.328;13.070;2023-03-01T12:20:22;2.40;;;1.73;;
12814;SDS011;6472;52.328;13.070;2023-03-01T12:23:12;1.90;;;1.50;;
12814;SDS011;6472;52.328;13.070;2023-03-01T12:25:51;6.73;;;2.87;;
12814;SDS011;6472;52.328;13.070;2023-03-01T12:28:35;3.07;;;2.20;;
12814;SDS011;6472;52.328;13.070;2023-03-01T12:31:33;2.23;;;1.83;;
12814;SDS011;6472;52.328;13.070;2023-03-01T12:34:24;2.03;;;1.53;;
12814;SDS011;6472;52.328;13.070;2023-03-01T12:37:05;3.83;;;1.73;;
12814;SDS011;6472;52.328;13.070;2023-03-01T12:39:44;3.80;;;1.77;;
12814;SDS011;6472;52.328;13.070;2023-03-01T12:42:25;2.97;;;1.97;;
12814;SDS011;6472;52.328;13.070;2023-03-01T12:45:02;2.60;;;1.97;;
12814;SDS011;6472;52.328;13.070;2023-03-01T12:47:50;3.30;;;2.23;;
12814;SDS011;6472;52.328;13.070;2023-03-01T12:50:39;2.23;;;2.03;;
12814;SDS011;6472;52.328;13.070;2023-03-01T12:53:15;2.40;;;2.20;;
12814;SDS011;6472;52.328;13.070;2023-03-01T12:55:49;4.77;;;2.40;;
12814;SDS011;6472;52.328;13.070;2023-03-01T12:58:21;3.07;;;2.23;;
12814;SDS011;6472;52.328;13.070;2023-03-01T13:01:08;6.27;;;2.57;;
12814;SDS011;6472;52.328;13.070;2023-03-01T13:03:51;4.30;;;2.43;;
12814;SDS011;6472;52.328;13.070;2023-03-01T13:06:34;3.07;;;2.23;;
12814;SDS011;6472;52.328;13.070;2023-03-01T13:09:11;2.80;;;1.93;;
12814;SDS011;6472;52.328;13.070;2023-03-01T13:11:45;3.53;;;2.27;;
12814;SDS011;6472;52.328;13.070;2023-03-01T13:17:28;4.80;;;2.50;;
12814;SDS011;6472;52.328;13.070;2023-03-01T13:19:59;4.40;;;2.67;;
12814;SDS011;6472;52.328;13.070;2023-03-01T13:22:32;4.80;;;2.83;;
12814;SDS011;6472;52.328;13.070;2023-03-01T13:25:16;2.27;;;2.10;;
12814;SDS011;6472;52.328;13.070;2023-03-01T13:27:45;3.30;;;2.60;;
12814;SDS011;6472;52.328;13.070;2023-03-01T13:30:38;3.70;;;2.33;;
12814;SDS011;6472;52.328;13.070;2023-03-01T13:39:29;4.53;;;1.90;;
12814;SDS011;6472;52.328;13.070;2023-03-01T13:41:59;3.70;;;2.30;;
12814;SDS011;6472;52.328;13.070;2023-03-01T13:44:30;2.00;;;1.90;;
12814;SDS011;6472;52.328;13.070;2023-03-01T13:47:03;4.57;;;2.90;;
12814;SDS011;6472;52.328;13.070;2023-03-01T13:49:44;3.93;;;2.30;;
12814;SDS011;6472;52.328;13.070;2023-03-01T13:55:16;4.27;;;2.30;;
12814;SDS011;6472;52.328;13.070;2023-03-01T13:57:47;2.93;;;2.13;;
12814;SDS011;6472;52.328;13.070;2023-03-01T14:00:27;2.33;;;1.70;;
12814;SDS011;6472;52.328;13.070;2023-03-01T14:05:57;2.03;;;1.83;;
12814;SDS011;6472;52.328;13.070;2023-03-01T14:08:40;1.93;;;1.73;;
12814;SDS011;6472;52.328;13.070;2023-03-01T14:14:12;1.77;;;1.50;;
12814;SDS011;6472;52.328;13.070;2023-03-01T14:16:55;2.43;;;1.70;;
12814;SDS011;6472;52.328;13.070;2023-03-01T14:19:33;3.03;;;2.40;;
12814;SDS011;6472;52.328;13.070;2023-03-01T14:22:03;2.50;;;1.70;;
12814;SDS011;6472;52.328;13.070;2023-03-01T14:24:43;2.17;;;1.80;;
12814;SDS011;6472;52.328;13.070;2023-03-01T14:27:16;2.13;;;1.53;;
12814;SDS011;6472;52.328;13.070;2023-03-01T14:29:53;16.63;;;8.57;;
12814;SDS011;6472;52.328;13.070;2023-03-01T14:32:24;4.23;;;2.57;;
12814;SDS011;6472;52.328;13.070;2023-03-01T14:34:53;1.70;;;1.60;;
12814;SDS011;6472;52.328;13.070;2023-03-01T14:37:24;2.90;;;1.40;;
12814;SDS011;6472;52.328;13.070;2023-03-01T14:39:54;1.50;;;1.40;;
12814;SDS011;6472;52.328;13.070;2023-03-01T14:42:26;2.13;;;1.50;;
12814;SDS011;6472;52.328;13.070;2023-03-01T14:44:58;2.00;;;1.60;;
12814;SDS011;6472;52.328;13.070;2023-03-01T14:47:29;1.80;;;1.70;;
12814;SDS011;6472;52.328;13.070;2023-03-01T14:50:00;4.23;;;1.77;;
12814;SDS011;6472;52.328;13.070;2023-03-01T14:52:33;3.03;;;1.63;;
12814;SDS011;6472;52.328;13.070;2023-03-01T14:55:04;3.30;;;1.60;;
12814;SDS011;6472;52.328;13.070;2023-03-01T14:57:35;1.50;;;1.40;;
12814;SDS011;6472;52.328;13.070;2023-03-01T15:00:05;1.80;;;1.63;;
12814;SDS011;6472;52.328;13.070;2023-03-01T15:02:34;2.40;;;1.87;;
12814;SDS011;6472;52.328;13.070;2023-03-01T15:05:05;1.53;;;1.43;;
12814;SDS011;6472;52.328;13.070;2023-03-01T15:07:36;3.13;;;1.50;;
12814;SDS011;6472;52.328;13.070;2023-03-01T15:10:14;7.03;;;1.70;;
12814;SDS011;6472;52.328;13.070;2023-03-01T15:12:47;2.60;;;1.90;;
12814;SDS011;6472;52.328;13.070;2023-03-01T15:15:22;2.67;;;1.63;;
12814;SDS011;6472;52.328;13.070;2023-03-01T15:18:03;3.87;;;2.00;;
12814;SDS011;6472;52.328;13.070;2023-03-01T15:20:33;3.40;;;1.73;;
12814;SDS011;6472;52.328;13.070;2023-03-01T15:23:04;3.60;;;1.80;;
12814;SDS011;6472;52.328;13.070;2023-03-01T15:25:33;2.63;;;1.60;;
12814;SDS011;6472;52.328;13.070;2023-03-01T15:28:03;1.80;;;1.70;;
12814;SDS011;6472;52.328;13.070;2023-03-01T15:30:32;5.00;;;1.63;;
12814;SDS011;6472;52.328;13.070;2023-03-01T15:33:17;1.47;;;1.37;;
12814;SDS011;6472;52.328;13.070;2023-03-01T15:35:56;1.63;;;1.27;;
12814;SDS011;6472;52.328;13.070;2023-03-01T15:38:29;1.57;;;1.47;;
12814;SDS011;6472;52.328;13.070;2023-03-01T15:41:05;3.20;;;1.77;;
12814;SDS011;6472;52.328;13.070;2023-03-01T15:43:51;1.30;;;1.20;;
12814;SDS011;6472;52.328;13.070;2023-03-01T15:46:22;1.93;;;1.67;;
12814;SDS011;6472;52.328;13.070;2023-03-01T15:48:54;2.50;;;1.30;;
12814;SDS011;6472;52.328;13.070;2023-03-01T15:51:27;3.20;;;1.80;;
12814;SDS011;6472;52.328;13.070;2023-03-01T15:54:02;2.67;;;2.10;;
12814;SDS011;6472;52.328;13.070;2023-03-01T15:56:33;2.50;;;1.27;;
12814;SDS011;6472;52.328;13.070;2023-03-01T15:59:02;2.57;;;1.70;;
12814;SDS011;6472;52.328;13.070;2023-03-01T16:01:30;3.43;;;1.50;;
12814;SDS011;6472;52.328;13.070;2023-03-01T16:04:00;1.80;;;1.13;;
12814;SDS011;6472;52.328;13.070;2023-03-01T16:06:29;1.50;;;1.37;;
12814;SDS011;6472;52.328;13.070;2023-03-01T16:08:58;2.00;;;1.40;;
12814;SDS011;6472;52.328;13.070;2023-03-01T16:11:26;1.73;;;1.23;;